Time,TemperatureF,DewpointF,PressureIn,WindDirection,WindDirectionDegrees,WindSpeedMPH,WindSpeedGustMPH,Humidity,HourlyPrecipIn,Conditions,Clouds,dailyrainin,SolarRadiationWatts/m^2,SoftwareType,DateUTC
2013-03-14 00:01:00,50.0,44.0,30.04,WSW,254,0.0,2.0,80,0.00,,,0.00,0,HR-IXPWINDi_r2_v1.2.,2013-03-14 07:01:00,
2013-03-14 00:07:00,50.0,44.3,30.04,WSW,254,0.0,2.0,81,0.00,,,0.00,0,HR-IXPWINDi_r2_v1.2.,2013-03-14 07:07:00,
2013-03-14 00:12:00,50.3,44.3,30.04,WSW,254,0.0,1.0,80,0.00,,,0.00,0,HR-IXPWINDi_r2_v1.2.,2013-03-14 07:12:00,
2013-03-14 00:17:00,50.1,44.1,30.04,WSW,254,1.0,1.0,80,0.00,,,0.00,0,HR-IXPWINDi_r2_v1.2.,2013-03-14 07:17:00,
2013-03-14 00:22:00,50.0,44.0,30.04,WSW,254,0.0,1.0,80,0.00,,,0.00,0,HR-IXPWINDi_r2_v1.2.,2013-03-14 07:22:00,
2013-03-14 00:28:00,49.9,43.9,30.04,WSW,254,0.0,1.0,80,0.00,,,0.00,0,HR-IXPWINDi_r2_v1.2.,2013-03-14 07:28:00,
2013-03-14 00:33:00,49.5,43.9,30.04,WSW,254,0.0,1.0,81,0.00,,,0.00,0,HR-IXPWINDi_r2_v1.2.,2013-03-14 07:33:00,
2013-03-14 00:38:00,49.2,43.9,30.04,WSW,254,1.0,2.0,82,0.00,,,0.00,0,HR-IXPWINDi_r2_v1.2.,2013-03-14 07:38:00,
2013-03-14 00:44:00,49.5,44.2,30.04,WSW,254,0.0,2.0,82,0.00,,,0.00,0,HR-IXPWINDi_r2_v1.2.,2013-03-14 07:44:00,
2013-03-14 00:49:00,49.4,43.8,30.04,WSW,254,1.0,2.0,81,0.00,,,0.00,0,HR-IXPWINDi_r2_v1.2.,2013-03-14 07:49:00,
2013-03-14 00:54:00,49.0,43.4,30.04,WSW,258,1.0,3.0,81,0.00,,,0.00,0,HR-IXPWINDi_r2_v1.2.,2013-03-14 07:54:00,
2013-03-14 01:00:00,48.9,43.3,30.04,WSW,258,0.0,3.0,81,0.00,,,0.00,0,HR-IXPWINDi_r2_v1.2.,2013-03-14 08:00:00,
2013-03-14 01:05:00,48.7,43.4,30.04,WSW,258,0.0,2.0,82,0.00,,,0.00,0,HR-IXPWINDi_r2_v1.2.,2013-03-14 08:05:00,
2013-03-14 01:10:00,48.7,43.4,30.04,WSW,258,1.0,2.0,82,0.00,,,0.00,0,HR-IXPWINDi_r2_v1.2.,2013-03-14 08:10:00,
2013-03-14 01:15:00,48.7,43.4,30.04,WSW,258,1.0,2.0,82,0.00,,,0.00,0,HR-IXPWINDi_r2_v1.2.,2013-03-14 08:15:00,
2013-03-14 01:20:00,48.3,43.3,30.04,West,264,1.0,3.0,83,0.00,,,0.00,0,HR-IXPWINDi_r2_v1.2.,2013-03-14 08:20:00,
2013-03-14 01:25:00,48.6,43.3,30.04,West,264,0.0,3.0,82,0.00,,,0.00,0,HR-IXPWINDi_r2_v1.2.,2013-03-14 08:25:00,
2013-03-14 01:30:00,48.6,43.3,30.04,West,264,1.0,2.0,82,0.00,,,0.00,0,HR-IXPWINDi_r2_v1.2.,2013-03-14 08:30:00,
2013-03-14 01:35:00,48.8,43.2,30.04,West,264,1.0,2.0,81,0.00,,,0.00,0,HR-IXPWINDi_r2_v1.2.,2013-03-14 08:35:00,
2013-03-14 01:41:00,48.5,42.9,30.04,West,269,1.0,2.0,81,0.00,,,0.00,0,HR-IXPWINDi_r2_v1.2.,2013-03-14 08:41:00,
2013-03-14 01:46:00,48.7,43.1,30.04,West,273,2.0,2.0,81,0.00,,,0.00,0,HR-IXPWINDi_r2_v1.2.,2013-03-14 08:46:00,
2013-03-14 01:51:00,48.8,43.2,30.04,West,277,2.0,2.0,81,0.00,,,0.00,0,HR-IXPWINDi_r2_v1.2.,2013-03-14 08:51:00,
2013-03-14 01:56:00,49.4,43.1,30.04,West,281,2.0,3.0,79,0.00,,,0.00,0,HR-IXPWINDi_r2_v1.2.,2013-03-14 08:56:00,
2013-03-14 02:01:00,49.4,42.8,30.04,WNW,284,1.0,3.0,78,0.00,,,0.00,0,HR-IXPWINDi_r2_v1.2.,2013-03-14 09:01:00,
2013-03-14 02:06:00,50.0,42.7,30.04,WNW,284,1.0,3.0,76,0.00,,,0.00,0,HR-IXPWINDi_r2_v1.2.,2013-03-14 09:06:00,
2013-03-14 02:12:00,50.1,42.4,30.04,WNW,284,1.0,2.0,75,0.00,,,0.00,0,HR-IXPWINDi_r2_v1.2.,2013-03-14 09:12:00,
2013-03-14 02:17:00,49.5,42.2,30.04,WNW,284,2.0,2.0,76,0.00,,,0.00,0,HR-IXPWINDi_r2_v1.2.,2013-03-14 09:17:00,
2013-03-14 02:22:00,49.9,42.6,30.04,WNW,300,1.0,3.0,76,0.00,,,0.00,0,HR-IXPWINDi_r2_v1.2.,2013-03-14 09:22:00,
2013-03-14 02:27:00,51.3,42.5,30.04,WNW,300,2.0,3.0,72,0.00,,,0.00,0,HR-IXPWINDi_r2_v1.2.,2013-03-14 09:27:00,
2013-03-14 02:32:00,52.3,42.0,30.04,WNW,294,1.0,4.0,68,0.00,,,0.00,0,HR-IXPWINDi_r2_v1.2.,2013-03-14 09:32:00,
2013-03-14 02:38:00,51.8,42.3,30.04,WNW,294,1.0,4.0,70,0.00,,,0.00,0,HR-IXPWINDi_r2_v1.2.,2013-03-14 09:38:00,
2013-03-14 02:43:00,50.5,42.1,30.04,WNW,294,1.0,3.0,73,0.00,,,0.00,0,HR-IXPWINDi_r2_v1.2.,2013-03-14 09:43:00,
2013-03-14 02:48:00,50.3,41.9,30.04,WNW,294,0.0,3.0,73,0.00,,,0.00,0,HR-IXPWINDi_r2_v1.2.,2013-03-14 09:48:00,
2013-03-14 02:53:00,50.2,42.2,30.04,WNW,294,2.0,3.0,74,0.00,,,0.00,0,HR-IXPWINDi_r2_v1.2.,2013-03-14 09:53:00,
2013-03-14 02:59:00,50.6,42.2,30.04,NW,325,1.0,3.0,73,0.00,,,0.00,0,HR-IXPWINDi_r2_v1.2.,2013-03-14 09:59:00,
2013-03-14 03:04:00,50.9,42.1,30.04,NW,323,1.0,3.0,72,0.00,,,0.00,0,HR-IXPWINDi_r2_v1.2.,2013-03-14 10:04:00,
2013-03-14 03:09:00,50.9,41.8,30.04,NW,323,1.0,2.0,71,0.00,,,0.00,0,HR-IXPWINDi_r2_v1.2.,2013-03-14 10:09:00,
2013-03-14 03:14:00,51.0,41.9,30.04,NW,317,1.0,3.0,71,0.00,,,0.00,0,HR-IXPWINDi_r2_v1.2.,2013-03-14 10:14:00,
2013-03-14 03:19:00,51.4,41.9,30.03,NW,317,1.0,3.0,70,0.00,,,0.00,0,HR-IXPWINDi_r2_v1.2.,2013-03-14 10:19:00,
2013-03-14 03:24:00,50.8,41.7,30.03,NW,317,2.0,2.0,71,0.00,,,0.00,0,HR-IXPWINDi_r2_v1.2.,2013-03-14 10:24:00,
2013-03-14 03:29:00,50.3,41.9,30.03,NW,317,2.0,2.0,73,0.00,,,0.00,0,HR-IXPWINDi_r2_v1.2.,2013-03-14 10:29:00,
2013-03-14 03:35:00,50.1,42.1,30.03,NW,317,1.0,3.0,74,0.00,,,0.00,0,HR-IXPWINDi_r2_v1.2.,2013-03-14 10:35:00,
2013-03-14 03:40:00,51.0,41.9,30.03,NW,317,0.0,3.0,71,0.00,,,0.00,0,HR-IXPWINDi_r2_v1.2.,2013-03-14 10:40:00,
2013-03-14 03:45:00,51.2,41.7,30.03,NW,317,0.0,2.0,70,0.00,,,0.00,0,HR-IXPWINDi_r2_v1.2.,2013-03-14 10:45:00,
2013-03-14 03:50:00,50.0,41.6,30.03,NW,320,3.0,3.0,73,0.00,,,0.00,0,HR-IXPWINDi_r2_v1.2.,2013-03-14 10:50:00,
2013-03-14 03:56:00,50.5,41.8,30.03,NW,317,0.0,5.0,72,0.00,,,0.00,0,HR-IXPWINDi_r2_v1.2.,2013-03-14 10:56:00,
2013-03-14 04:01:00,51.0,41.9,30.03,NW,317,1.0,5.0,71,0.00,,,0.00,0,HR-IXPWINDi_r2_v1.2.,2013-03-14 11:01:00,
2013-03-14 04:06:00,51.8,41.1,30.03,NW,316,2.0,4.0,67,0.00,,,0.00,0,HR-IXPWINDi_r2_v1.2.,2013-03-14 11:06:00,
2013-03-14 04:11:00,52.0,41.3,30.03,NW,316,0.0,4.0,67,0.00,,,0.00,0,HR-IXPWINDi_r2_v1.2.,2013-03-14 11:11:00,
2013-03-14 04:18:00,51.2,41.3,30.03,NW,317,2.0,3.0,69,0.00,,,0.00,0,HR-IXPWINDi_r2_v1.2.,2013-03-14 11:18:00,
2013-03-14 04:23:00,50.3,41.6,30.03,NW,317,0.0,3.0,72,0.00,,,0.00,0,HR-IXPWINDi_r2_v1.2.,2013-03-14 11:23:00,
2013-03-14 04:28:00,50.1,41.4,30.03,NW,317,0.0,3.0,72,0.00,,,0.00,0,HR-IXPWINDi_r2_v1.2.,2013-03-14 11:28:00,
2013-03-14 04:33:00,49.6,41.6,30.03,NW,317,0.0,3.0,74,0.00,,,0.00,0,HR-IXPWINDi_r2_v1.2.,2013-03-14 11:33:00,
2013-03-14 04:39:00,49.6,41.3,30.03,NW,317,2.0,2.0,73,0.00,,,0.00,0,HR-IXPWINDi_r2_v1.2.,2013-03-14 11:39:00,
2013-03-14 04:44:00,49.6,41.3,30.03,NW,317,1.0,2.0,73,0.00,,,0.00,0,HR-IXPWINDi_r2_v1.2.,2013-03-14 11:44:00,
2013-03-14 04:49:00,50.1,41.0,30.03,NW,317,0.0,3.0,71,0.00,,,0.00,0,HR-IXPWINDi_r2_v1.2.,2013-03-14 11:49:00,
2013-03-14 04:54:00,49.3,41.7,30.03,NW,317,0.0,3.0,75,0.00,,,0.00,0,HR-IXPWINDi_r2_v1.2.,2013-03-14 11:54:00,
2013-03-14 04:59:00,48.6,41.3,30.03,NW,317,1.0,3.0,76,0.00,,,0.00,0,HR-IXPWINDi_r2_v1.2.,2013-03-14 11:59:00,
2013-03-14 05:05:00,48.7,41.1,30.03,NW,317,1.0,2.0,75,0.00,,,0.00,0,HR-IXPWINDi_r2_v1.2.,2013-03-14 12:05:00,
2013-03-14 05:10:00,48.5,41.2,30.03,NW,317,0.0,2.0,76,0.00,,,0.00,0,HR-IXPWINDi_r2_v1.2.,2013-03-14 12:10:00,
2013-03-14 05:15:00,48.6,40.6,30.03,NW,317,0.0,2.0,74,0.00,,,0.00,0,HR-IXPWINDi_r2_v1.2.,2013-03-14 12:15:00,
2013-03-14 05:20:00,48.1,41.5,30.03,NW,317,2.0,2.0,78,0.00,,,0.00,0,HR-IXPWINDi_r2_v1.2.,2013-03-14 12:20:00,
2013-03-14 05:25:00,48.6,41.3,30.04,NW,317,1.0,2.0,76,0.00,,,0.00,0,HR-IXPWINDi_r2_v1.2.,2013-03-14 12:25:00,
2013-03-14 05:30:00,49.9,41.2,30.04,NW,317,1.0,2.0,72,0.00,,,0.00,0,HR-IXPWINDi_r2_v1.2.,2013-03-14 12:30:00,
2013-03-14 05:36:00,49.7,41.3,30.04,NW,316,0.0,3.0,73,0.00,,,0.00,0,HR-IXPWINDi_r2_v1.2.,2013-03-14 12:36:00,
2013-03-14 05:41:00,48.7,41.1,30.04,NW,316,0.0,3.0,75,0.00,,,0.00,0,HR-IXPWINDi_r2_v1.2.,2013-03-14 12:41:00,
2013-03-14 05:46:00,48.4,41.1,30.04,NW,317,2.0,2.0,76,0.00,,,0.00,0,HR-IXPWINDi_r2_v1.2.,2013-03-14 12:46:00,
2013-03-14 05:51:00,49.3,41.0,30.04,NW,316,2.0,2.0,73,0.00,,,0.00,0,HR-IXPWINDi_r2_v1.2.,2013-03-14 12:51:00,
2013-03-14 05:57:00,49.0,41.0,30.04,NW,316,0.0,2.0,74,0.00,,,0.00,0,HR-IXPWINDi_r2_v1.2.,2013-03-14 12:57:00,
2013-03-14 06:02:00,48.1,41.2,30.04,NW,316,2.0,2.0,77,0.00,,,0.00,0,HR-IXPWINDi_r2_v1.2.,2013-03-14 13:02:00,
2013-03-14 06:07:00,47.6,41.4,30.04,NW,316,0.0,2.0,79,0.00,,,0.00,0,HR-IXPWINDi_r2_v1.2.,2013-03-14 13:07:00,
2013-03-14 06:13:00,47.5,41.3,30.04,NW,317,1.0,2.0,79,0.00,,,0.00,0,HR-IXPWINDi_r2_v1.2.,2013-03-14 13:13:00,
2013-03-14 06:18:00,47.5,41.3,30.04,NW,317,1.0,2.0,79,0.00,,,0.00,0,HR-IXPWINDi_r2_v1.2.,2013-03-14 13:18:00,
2013-03-14 06:23:00,47.6,41.0,30.04,NW,317,0.0,2.0,78,0.00,,,0.00,0,HR-IXPWINDi_r2_v1.2.,2013-03-14 13:23:00,
2013-03-14 06:28:00,48.1,40.8,30.04,NW,316,1.0,3.0,76,0.00,,,0.00,0,HR-IXPWINDi_r2_v1.2.,2013-03-14 13:28:00,
2013-03-14 06:34:00,47.9,41.0,30.04,NW,316,2.0,3.0,77,0.00,,,0.00,0,HR-IXPWINDi_r2_v1.2.,2013-03-14 13:34:00,
2013-03-14 06:39:00,47.5,40.9,30.04,NW,316,0.0,2.0,78,0.00,,,0.00,0,HR-IXPWINDi_r2_v1.2.,2013-03-14 13:39:00,
2013-03-14 06:44:00,46.9,41.0,30.05,NW,316,2.0,2.0,80,0.00,,,0.00,0,HR-IXPWINDi_r2_v1.2.,2013-03-14 13:44:00,
2013-03-14 06:49:00,46.4,40.8,30.04,NW,316,1.0,2.0,81,0.00,,,0.00,0,HR-IXPWINDi_r2_v1.2.,2013-03-14 13:49:00,
2013-03-14 06:54:00,46.3,41.1,30.05,NW,316,1.0,2.0,82,0.00,,,0.00,0,HR-IXPWINDi_r2_v1.2.,2013-03-14 13:54:00,
2013-03-14 07:00:00,46.4,41.2,30.04,NW,316,1.0,2.0,82,0.00,,,0.00,0,HR-IXPWINDi_r2_v1.2.,2013-03-14 14:00:00,
2013-03-14 07:05:00,46.4,41.2,30.05,NW,316,1.0,2.0,82,0.00,,,0.00,0,HR-IXPWINDi_r2_v1.2.,2013-03-14 14:05:00,
2013-03-14 07:10:00,47.1,41.5,30.05,NW,316,1.0,3.0,81,0.00,,,0.00,5,HR-IXPWINDi_r2_v1.2.,2013-03-14 14:10:00,
2013-03-14 07:16:00,47.8,41.6,30.04,NW,316,0.0,3.0,79,0.00,,,0.00,7,HR-IXPWINDi_r2_v1.2.,2013-03-14 14:16:00,
2013-03-14 07:21:00,48.4,41.1,30.04,NW,316,1.0,2.0,76,0.00,,,0.00,11,HR-IXPWINDi_r2_v1.2.,2013-03-14 14:21:00,
2013-03-14 07:26:00,48.1,41.2,30.05,NW,315,1.0,2.0,77,0.00,,,0.00,12,HR-IXPWINDi_r2_v1.2.,2013-03-14 14:26:00,
2013-03-14 07:31:00,48.3,41.0,30.04,NW,314,0.0,3.0,76,0.00,,,0.00,21,HR-IXPWINDi_r2_v1.2.,2013-03-14 14:31:00,
2013-03-14 07:36:00,48.3,41.4,30.05,NW,314,0.0,3.0,77,0.00,,,0.00,28,HR-IXPWINDi_r2_v1.2.,2013-03-14 14:36:00,
2013-03-14 07:42:00,48.2,41.6,30.05,NW,314,1.0,2.0,78,0.00,,,0.00,51,HR-IXPWINDi_r2_v1.2.,2013-03-14 14:42:00,
2013-03-14 07:47:00,49.2,42.2,30.05,NW,314,1.0,2.0,77,0.00,,,0.00,63,HR-IXPWINDi_r2_v1.2.,2013-03-14 14:47:00,
2013-03-14 07:52:00,51.0,43.0,30.05,NW,314,0.0,2.0,74,0.00,,,0.00,81,HR-IXPWINDi_r2_v1.2.,2013-03-14 14:52:00,
2013-03-14 07:57:00,52.5,42.9,30.05,NW,314,1.0,3.0,70,0.00,,,0.00,97,HR-IXPWINDi_r2_v1.2.,2013-03-14 14:57:00,
2013-03-14 08:03:00,53.7,43.7,30.05,NW,315,0.0,3.0,69,0.00,,,0.00,100,HR-IXPWINDi_r2_v1.2.,2013-03-14 15:03:00,
2013-03-14 08:08:00,55.4,43.8,30.05,NW,312,1.0,3.0,65,0.00,,,0.00,114,HR-IXPWINDi_r2_v1.2.,2013-03-14 15:08:00,
2013-03-14 08:13:00,56.5,44.0,30.05,NW,312,1.0,3.0,63,0.00,,,0.00,160,HR-IXPWINDi_r2_v1.2.,2013-03-14 15:13:00,
2013-03-14 08:18:00,57.5,45.0,30.05,NW,312,1.0,2.0,63,0.00,,,0.00,181,HR-IXPWINDi_r2_v1.2.,2013-03-14 15:18:00,
2013-03-14 08:23:00,58.3,46.1,30.05,NW,312,0.0,2.0,64,0.00,,,0.00,178,HR-IXPWINDi_r2_v1.2.,2013-03-14 15:23:00,
2013-03-14 08:28:00,59.3,45.8,30.05,NW,313,1.0,3.0,61,0.00,,,0.00,195,HR-IXPWINDi_r2_v1.2.,2013-03-14 15:28:00,
2013-03-14 08:33:00,60.0,46.0,30.05,NNW,329,1.0,3.0,60,0.00,,,0.00,243,HR-IXPWINDi_r2_v1.2.,2013-03-14 15:33:00,
2013-03-14 08:39:00,61.1,46.2,30.06,NNW,333,2.0,3.0,58,0.00,,,0.00,279,HR-IXPWINDi_r2_v1.2.,2013-03-14 15:39:00,
2013-03-14 08:44:00,62.3,46.4,30.06,NNW,334,0.0,3.0,56,0.00,,,0.00,299,HR-IXPWINDi_r2_v1.2.,2013-03-14 15:44:00,
2013-03-14 08:49:00,63.1,46.1,30.06,NNW,334,0.0,3.0,54,0.00,,,0.00,311,HR-IXPWINDi_r2_v1.2.,2013-03-14 15:49:00,
2013-03-14 08:54:00,64.0,47.0,30.06,NNW,334,1.0,2.0,54,0.00,,,0.00,130,HR-IXPWINDi_r2_v1.2.,2013-03-14 15:54:00,
2013-03-14 08:59:00,64.5,46.9,30.06,NNW,334,0.0,2.0,53,0.00,,,0.00,355,HR-IXPWINDi_r2_v1.2.,2013-03-14 15:59:00,
2013-03-14 09:04:00,65.2,45.5,30.06,NNW,334,1.0,2.0,49,0.00,,,0.00,364,HR-IXPWINDi_r2_v1.2.,2013-03-14 16:04:00,
2013-03-14 09:09:00,65.1,49.0,30.06,NNW,334,0.0,2.0,56,0.00,,,0.00,77,HR-IXPWINDi_r2_v1.2.,2013-03-14 16:09:00,
2013-03-14 09:14:00,65.0,47.9,30.06,NNW,334,0.0,2.0,54,0.00,,,0.00,67,HR-IXPWINDi_r2_v1.2.,2013-03-14 16:14:00,
2013-03-14 09:19:00,65.2,49.5,30.06,NNW,334,0.0,1.0,57,0.00,,,0.00,111,HR-IXPWINDi_r2_v1.2.,2013-03-14 16:19:00,
2013-03-14 09:24:00,65.7,47.5,30.06,NNW,334,0.0,1.0,52,0.00,,,0.00,60,HR-IXPWINDi_r2_v1.2.,2013-03-14 16:24:00,
2013-03-14 09:29:00,66.6,50.8,30.06,NNW,342,1.0,2.0,57,0.00,,,0.00,165,HR-IXPWINDi_r2_v1.2.,2013-03-14 16:29:00,
2013-03-14 09:35:00,67.1,47.3,30.06,NNW,342,1.0,2.0,49,0.00,,,0.00,473,HR-IXPWINDi_r2_v1.2.,2013-03-14 16:35:00,
2013-03-14 09:40:00,67.6,47.2,30.06,NNW,348,0.0,2.0,48,0.00,,,0.00,359,HR-IXPWINDi_r2_v1.2.,2013-03-14 16:40:00,
2013-03-14 09:45:00,67.9,45.7,30.06,North,355,0.0,2.0,45,0.00,,,0.00,236,HR-IXPWINDi_r2_v1.2.,2013-03-14 16:45:00,
2013-03-14 09:50:00,68.6,48.1,30.06,North,5,1.0,2.0,48,0.00,,,0.00,339,HR-IXPWINDi_r2_v1.2.,2013-03-14 16:50:00,
2013-03-14 09:55:00,69.7,46.8,30.06,East,83,1.0,2.0,44,0.00,,,0.00,531,HR-IXPWINDi_r2_v1.2.,2013-03-14 16:55:00,
2013-03-14 10:01:00,71.1,48.0,30.07,SE,129,1.0,3.0,44,0.00,,,0.00,225,HR-IXPWINDi_r2_v1.2.,2013-03-14 17:01:00,
2013-03-14 10:06:00,71.6,47.9,30.07,ESE,107,1.0,3.0,43,0.00,,,0.00,566,HR-IXPWINDi_r2_v1.2.,2013-03-14 17:06:00,
2013-03-14 10:11:00,71.5,46.5,30.06,East,91,0.0,2.0,41,0.00,,,0.00,582,HR-IXPWINDi_r2_v1.2.,2013-03-14 17:11:00,
2013-03-14 10:16:00,72.1,48.3,30.06,East,92,0.0,2.0,43,0.00,,,0.00,598,HR-IXPWINDi_r2_v1.2.,2013-03-14 17:16:00,
2013-03-14 10:21:00,72.0,50.6,30.06,East,92,0.0,1.0,47,0.00,,,0.00,612,HR-IXPWINDi_r2_v1.2.,2013-03-14 17:21:00,
2013-03-14 10:27:00,73.3,49.4,30.06,East,91,2.0,2.0,43,0.00,,,0.00,624,HR-IXPWINDi_r2_v1.2.,2013-03-14 17:27:00,
2013-03-14 10:32:00,73.2,51.1,30.06,SE,132,1.0,2.0,46,0.00,,,0.00,624,HR-IXPWINDi_r2_v1.2.,2013-03-14 17:32:00,
2013-03-14 10:37:00,72.8,52.5,30.06,SSE,162,0.0,2.0,49,0.00,,,0.00,610,HR-IXPWINDi_r2_v1.2.,2013-03-14 17:37:00,
2013-03-14 10:42:00,72.4,53.7,30.06,SE,126,1.0,3.0,52,0.00,,,0.00,580,HR-IXPWINDi_r2_v1.2.,2013-03-14 17:42:00,
2013-03-14 10:47:00,72.6,53.9,30.06,SSE,155,0.0,3.0,52,0.00,,,0.00,548,HR-IXPWINDi_r2_v1.2.,2013-03-14 17:47:00,
2013-03-14 10:52:00,72.3,52.6,30.05,South,191,1.0,3.0,50,0.00,,,0.00,522,HR-IXPWINDi_r2_v1.2.,2013-03-14 17:52:00,
2013-03-14 10:57:00,72.7,52.9,30.05,SSE,165,1.0,2.0,50,0.00,,,0.00,512,HR-IXPWINDi_r2_v1.2.,2013-03-14 17:57:00,
2013-03-14 11:02:00,72.9,53.1,30.05,SSE,167,0.0,2.0,50,0.00,,,0.00,519,HR-IXPWINDi_r2_v1.2.,2013-03-14 18:02:00,
2013-03-14 11:07:00,73.1,52.2,30.05,South,188,1.0,2.0,48,0.00,,,0.00,541,HR-IXPWINDi_r2_v1.2.,2013-03-14 18:07:00,
2013-03-14 11:13:00,74.0,51.9,30.05,South,178,1.0,3.0,46,0.00,,,0.00,580,HR-IXPWINDi_r2_v1.2.,2013-03-14 18:13:00,
2013-03-14 11:18:00,74.3,52.7,30.05,SSE,150,1.0,3.0,47,0.00,,,0.00,628,HR-IXPWINDi_r2_v1.2.,2013-03-14 18:18:00,
2013-03-14 11:23:00,74.8,52.6,30.05,SSW,196,0.0,4.0,46,0.00,,,0.00,673,HR-IXPWINDi_r2_v1.2.,2013-03-14 18:23:00,
2013-03-14 11:28:00,75.0,53.4,30.05,SSE,167,1.0,4.0,47,0.00,,,0.00,715,HR-IXPWINDi_r2_v1.2.,2013-03-14 18:28:00,
2013-03-14 11:33:00,75.5,53.8,30.05,South,169,1.0,3.0,47,0.00,,,0.00,728,HR-IXPWINDi_r2_v1.2.,2013-03-14 18:33:00,
2013-03-14 11:38:00,75.9,54.8,30.05,South,171,0.0,3.0,48,0.00,,,0.00,761,HR-IXPWINDi_r2_v1.2.,2013-03-14 18:38:00,
2013-03-14 11:44:00,76.9,54.5,30.05,South,175,0.0,2.0,46,0.00,,,0.00,773,HR-IXPWINDi_r2_v1.2.,2013-03-14 18:44:00,
2013-03-14 11:49:00,77.0,54.6,30.05,SSE,150,1.0,3.0,46,0.00,,,0.00,780,HR-IXPWINDi_r2_v1.2.,2013-03-14 18:49:00,
2013-03-14 11:54:00,77.5,56.2,30.05,South,188,1.0,3.0,48,0.00,,,0.00,789,HR-IXPWINDi_r2_v1.2.,2013-03-14 18:54:00,
2013-03-14 11:59:00,77.8,55.3,30.04,SE,144,1.0,3.0,46,0.00,,,0.00,798,HR-IXPWINDi_r2_v1.2.,2013-03-14 18:59:00,
2013-03-14 12:04:00,78.1,55.6,30.04,South,173,0.0,3.0,46,0.00,,,0.00,803,HR-IXPWINDi_r2_v1.2.,2013-03-14 19:04:00,
2013-03-14 12:09:00,78.0,53.0,30.04,South,169,1.0,3.0,42,0.00,,,0.00,805,HR-IXPWINDi_r2_v1.2.,2013-03-14 19:09:00,
2013-03-14 12:14:00,78.2,54.5,30.04,SE,128,1.0,3.0,44,0.00,,,0.00,782,HR-IXPWINDi_r2_v1.2.,2013-03-14 19:14:00,
2013-03-14 12:19:00,78.6,55.4,30.04,SSE,164,1.0,3.0,45,0.00,,,0.00,742,HR-IXPWINDi_r2_v1.2.,2013-03-14 19:19:00,
2013-03-14 12:24:00,79.3,57.3,30.04,SE,141,1.0,3.0,47,0.00,,,0.00,689,HR-IXPWINDi_r2_v1.2.,2013-03-14 19:24:00,
2013-03-14 12:29:00,79.5,56.9,30.04,SSE,155,3.0,4.0,46,0.00,,,0.00,645,HR-IXPWINDi_r2_v1.2.,2013-03-14 19:29:00,
2013-03-14 12:34:00,79.7,57.0,30.04,South,175,2.0,4.0,46,0.00,,,0.00,631,HR-IXPWINDi_r2_v1.2.,2013-03-14 19:34:00,
2013-03-14 12:39:00,80.1,56.2,30.04,East,90,1.0,4.0,44,0.00,,,0.00,642,HR-IXPWINDi_r2_v1.2.,2013-03-14 19:39:00,
2013-03-14 12:45:00,81.4,56.1,30.04,SSE,163,5.0,5.0,42,0.00,,,0.00,682,HR-IXPWINDi_r2_v1.2.,2013-03-14 19:45:00,
2013-03-14 12:50:00,81.4,51.1,30.03,South,186,4.0,7.0,35,0.00,,,0.00,745,HR-IXPWINDi_r2_v1.2.,2013-03-14 19:50:00,
2013-03-14 12:55:00,80.8,51.3,30.04,SSE,167,3.0,7.0,36,0.00,,,0.00,812,HR-IXPWINDi_r2_v1.2.,2013-03-14 19:55:00,
2013-03-14 13:00:00,81.6,51.3,30.03,South,175,1.0,7.0,35,0.00,,,0.00,800,HR-IXPWINDi_r2_v1.2.,2013-03-14 20:00:00,
2013-03-14 13:05:00,80.9,50.7,30.03,South,170,3.0,7.0,35,0.00,,,0.00,814,HR-IXPWINDi_r2_v1.2.,2013-03-14 20:05:00,
2013-03-14 13:10:00,81.2,50.1,30.03,SSE,165,5.0,7.0,34,0.00,,,0.00,842,HR-IXPWINDi_r2_v1.2.,2013-03-14 20:10:00,
2013-03-14 13:15:00,82.4,47.8,30.03,South,172,4.0,7.0,30,0.00,,,0.00,802,HR-IXPWINDi_r2_v1.2.,2013-03-14 20:15:00,
2013-03-14 13:20:00,81.2,48.5,30.03,South,170,3.0,8.0,32,0.00,,,0.00,840,HR-IXPWINDi_r2_v1.2.,2013-03-14 20:20:00,
2013-03-14 13:25:00,80.4,46.1,30.03,SSE,154,3.0,8.0,30,0.00,,,0.00,844,HR-IXPWINDi_r2_v1.2.,2013-03-14 20:25:00,
2013-03-14 13:31:00,80.9,46.5,30.03,SSE,163,0.0,7.0,30,0.00,,,0.00,807,HR-IXPWINDi_r2_v1.2.,2013-03-14 20:31:00,
2013-03-14 13:36:00,82.0,48.4,30.03,SSE,157,0.0,6.0,31,0.00,,,0.00,775,HR-IXPWINDi_r2_v1.2.,2013-03-14 20:36:00,
2013-03-14 13:41:00,81.4,46.1,30.03,South,184,0.0,7.0,29,0.00,,,0.00,826,HR-IXPWINDi_r2_v1.2.,2013-03-14 20:41:00,
2013-03-14 13:46:00,82.0,48.4,30.03,South,175,3.0,7.0,31,0.00,,,0.00,830,HR-IXPWINDi_r2_v1.2.,2013-03-14 20:46:00,
2013-03-14 13:52:00,81.3,49.4,30.03,SE,128,2.0,6.0,33,0.00,,,0.00,819,HR-IXPWINDi_r2_v1.2.,2013-03-14 20:52:00,
2013-03-14 13:57:00,81.7,50.6,30.03,South,169,2.0,6.0,34,0.00,,,0.00,810,HR-IXPWINDi_r2_v1.2.,2013-03-14 20:57:00,
2013-03-14 14:02:00,82.0,47.5,30.02,South,179,0.0,6.0,30,0.00,,,0.00,805,HR-IXPWINDi_r2_v1.2.,2013-03-14 21:02:00,
2013-03-14 14:07:00,80.7,49.7,30.02,SSE,163,0.0,6.0,34,0.00,,,0.00,803,HR-IXPWINDi_r2_v1.2.,2013-03-14 21:07:00,
2013-03-14 14:13:00,80.9,48.2,30.02,SSW,196,5.0,6.0,32,0.00,,,0.00,761,HR-IXPWINDi_r2_v1.2.,2013-03-14 21:13:00,
2013-03-14 14:18:00,81.7,47.2,30.02,South,179,0.0,5.0,30,0.00,,,0.00,789,HR-IXPWINDi_r2_v1.2.,2013-03-14 21:18:00,
2013-03-14 14:23:00,81.7,47.2,30.01,SSW,194,4.0,5.0,30,0.00,,,0.00,784,HR-IXPWINDi_r2_v1.2.,2013-03-14 21:23:00,
2013-03-14 14:28:00,81.5,45.2,30.01,South,171,3.0,6.0,28,0.00,,,0.00,775,HR-IXPWINDi_r2_v1.2.,2013-03-14 21:28:00,
2013-03-14 14:34:00,81.3,45.1,30.01,South,180,5.0,7.0,28,0.00,,,0.00,761,HR-IXPWINDi_r2_v1.2.,2013-03-14 21:34:00,
2013-03-14 14:39:00,82.6,49.7,30.01,South,173,2.0,7.0,32,0.00,,,0.00,759,HR-IXPWINDi_r2_v1.2.,2013-03-14 21:39:00,
2013-03-14 14:44:00,82.1,49.3,30.01,South,187,4.0,6.0,32,0.00,,,0.00,752,HR-IXPWINDi_r2_v1.2.,2013-03-14 21:44:00,
2013-03-14 14:49:00,81.3,47.8,30.01,SSE,162,3.0,6.0,31,0.00,,,0.00,754,HR-IXPWINDi_r2_v1.2.,2013-03-14 21:49:00,
2013-03-14 14:54:00,80.9,49.1,30.01,South,185,2.0,7.0,33,0.00,,,0.00,687,HR-IXPWINDi_r2_v1.2.,2013-03-14 21:54:00,
2013-03-14 15:00:00,79.6,49.5,30.01,South,187,3.0,7.0,35,0.00,,,0.00,687,HR-IXPWINDi_r2_v1.2.,2013-03-14 22:00:00,
2013-03-14 15:05:00,80.4,50.2,30.00,South,172,4.0,7.0,35,0.00,,,0.00,652,HR-IXPWINDi_r2_v1.2.,2013-03-14 22:05:00,
2013-03-14 15:10:00,80.3,50.1,30.00,South,176,3.0,5.0,35,0.00,,,0.00,424,HR-IXPWINDi_r2_v1.2.,2013-03-14 22:10:00,
2013-03-14 15:16:00,79.8,48.1,30.01,SSE,161,4.0,7.0,33,0.00,,,0.00,608,HR-IXPWINDi_r2_v1.2.,2013-03-14 22:16:00,
2013-03-14 15:21:00,79.9,53.4,30.01,South,169,1.0,7.0,40,0.00,,,0.00,594,HR-IXPWINDi_r2_v1.2.,2013-03-14 22:21:00,
2013-03-14 15:26:00,79.4,53.6,30.01,South,176,0.0,6.0,41,0.00,,,0.00,570,HR-IXPWINDi_r2_v1.2.,2013-03-14 22:26:00,
2013-03-14 15:32:00,79.3,52.8,30.01,South,184,2.0,6.0,40,0.00,,,0.00,659,HR-IXPWINDi_r2_v1.2.,2013-03-14 22:32:00,
2013-03-14 15:37:00,79.4,54.3,30.01,SSE,161,3.0,6.0,42,0.00,,,0.00,631,HR-IXPWINDi_r2_v1.2.,2013-03-14 22:37:00,
2013-03-14 15:42:00,78.9,53.8,30.01,South,188,3.0,6.0,42,0.00,,,0.00,636,HR-IXPWINDi_r2_v1.2.,2013-03-14 22:42:00,
2013-03-14 15:47:00,78.3,53.3,30.00,South,190,2.0,6.0,42,0.00,,,0.00,629,HR-IXPWINDi_r2_v1.2.,2013-03-14 22:47:00,
2013-03-14 15:52:00,78.0,53.7,30.00,South,182,2.0,6.0,43,0.00,,,0.00,570,HR-IXPWINDi_r2_v1.2.,2013-03-14 22:52:00,
2013-03-14 15:57:00,77.6,53.9,30.00,South,174,1.0,6.0,44,0.00,,,0.00,538,HR-IXPWINDi_r2_v1.2.,2013-03-14 22:57:00,
2013-03-14 16:02:00,77.3,53.0,30.00,SSE,157,3.0,6.0,43,0.00,,,0.00,496,HR-IXPWINDi_r2_v1.2.,2013-03-14 23:02:00,
2013-03-14 16:07:00,76.8,50.6,30.00,South,182,3.0,6.0,40,0.00,,,0.00,445,HR-IXPWINDi_r2_v1.2.,2013-03-14 23:07:00,
2013-03-14 16:13:00,76.9,53.3,29.99,SSE,164,0.0,6.0,44,0.00,,,0.00,427,HR-IXPWINDi_r2_v1.2.,2013-03-14 23:13:00,
2013-03-14 16:18:00,76.9,52.7,29.99,SSE,164,3.0,3.0,43,0.00,,,0.00,399,HR-IXPWINDi_r2_v1.2.,2013-03-14 23:18:00,
2013-03-14 16:23:00,76.7,51.8,29.99,SSE,165,2.0,4.0,42,0.00,,,0.00,262,HR-IXPWINDi_r2_v1.2.,2013-03-14 23:23:00,
2013-03-14 16:28:00,75.6,52.1,29.99,SSE,159,0.0,4.0,44,0.00,,,0.00,304,HR-IXPWINDi_r2_v1.2.,2013-03-14 23:28:00,
2013-03-14 16:34:00,75.2,53.0,29.99,SSE,157,0.0,2.0,46,0.00,,,0.00,318,HR-IXPWINDi_r2_v1.2.,2013-03-14 23:34:00,
2013-03-14 16:39:00,75.2,50.5,29.99,SSE,161,0.0,2.0,42,0.00,,,0.00,320,HR-IXPWINDi_r2_v1.2.,2013-03-14 23:39:00,
2013-03-14 16:44:00,75.8,52.9,29.99,South,182,3.0,3.0,45,0.00,,,0.00,390,HR-IXPWINDi_r2_v1.2.,2013-03-14 23:44:00,
2013-03-14 16:50:00,77.0,54.0,29.99,South,182,1.0,4.0,45,0.00,,,0.00,459,HR-IXPWINDi_r2_v1.2.,2013-03-14 23:50:00,
2013-03-14 16:55:00,77.4,53.1,29.99,South,182,1.0,4.0,43,0.00,,,0.00,434,HR-IXPWINDi_r2_v1.2.,2013-03-14 23:55:00,
2013-03-14 17:00:00,77.0,54.0,29.98,SSE,148,1.0,3.0,45,0.00,,,0.00,336,HR-IXPWINDi_r2_v1.2.,2013-03-15 00:00:00,
2013-03-14 17:05:00,75.8,54.1,29.98,South,182,0.0,3.0,47,0.00,,,0.00,167,HR-IXPWINDi_r2_v1.2.,2013-03-15 00:05:00,
2013-03-14 17:10:00,73.9,54.6,29.98,South,172,2.0,3.0,51,0.00,,,0.00,165,HR-IXPWINDi_r2_v1.2.,2013-03-15 00:10:00,
2013-03-14 17:16:00,72.7,54.0,29.98,SSW,195,0.0,3.0,52,0.00,,,0.00,199,HR-IXPWINDi_r2_v1.2.,2013-03-15 00:16:00,
2013-03-14 17:21:00,72.1,54.5,29.98,SSE,167,0.0,3.0,54,0.00,,,0.00,278,HR-IXPWINDi_r2_v1.2.,2013-03-15 00:21:00,
2013-03-14 17:26:00,71.1,54.6,29.98,SSE,163,0.0,3.0,56,0.00,,,0.00,116,HR-IXPWINDi_r2_v1.2.,2013-03-15 00:26:00,
2013-03-14 17:31:00,70.2,55.1,29.98,South,175,0.0,3.0,59,0.00,,,0.00,105,HR-IXPWINDi_r2_v1.2.,2013-03-15 00:31:00,
2013-03-14 17:36:00,69.5,54.5,29.98,SSW,194,0.0,2.0,59,0.00,,,0.00,104,HR-IXPWINDi_r2_v1.2.,2013-03-15 00:36:00,
2013-03-14 17:41:00,69.1,54.6,29.98,SSW,193,0.0,2.0,60,0.00,,,0.00,95,HR-IXPWINDi_r2_v1.2.,2013-03-15 00:41:00,
2013-03-14 17:47:00,68.7,54.2,29.98,South,190,0.0,1.0,60,0.00,,,0.00,88,HR-IXPWINDi_r2_v1.2.,2013-03-15 00:47:00,
2013-03-14 17:52:00,68.2,55.1,29.98,SW,217,0.0,1.0,63,0.00,,,0.00,83,HR-IXPWINDi_r2_v1.2.,2013-03-15 00:52:00,
2013-03-14 17:57:00,67.6,54.9,29.98,SSW,195,0.0,2.0,64,0.00,,,0.00,74,HR-IXPWINDi_r2_v1.2.,2013-03-15 00:57:00,
2013-03-14 18:02:00,67.1,54.9,29.98,South,188,0.0,2.0,65,0.00,,,0.00,65,HR-IXPWINDi_r2_v1.2.,2013-03-15 01:02:00,
2013-03-14 18:07:00,66.4,54.6,29.98,South,171,0.0,2.0,66,0.00,,,0.00,58,HR-IXPWINDi_r2_v1.2.,2013-03-15 01:07:00,
2013-03-14 18:12:00,65.8,54.9,29.98,SSW,199,0.0,1.0,68,0.00,,,0.00,53,HR-IXPWINDi_r2_v1.2.,2013-03-15 01:12:00,
2013-03-14 18:18:00,65.3,54.8,29.98,SSW,198,0.0,1.0,69,0.00,,,0.00,47,HR-IXPWINDi_r2_v1.2.,2013-03-15 01:18:00,
2013-03-14 18:23:00,64.9,54.8,29.98,SSW,198,0.0,1.0,70,0.00,,,0.00,42,HR-IXPWINDi_r2_v1.2.,2013-03-15 01:23:00,
2013-03-14 18:28:00,64.4,54.7,29.98,SSW,198,0.0,1.0,71,0.00,,,0.00,37,HR-IXPWINDi_r2_v1.2.,2013-03-15 01:28:00,
2013-03-14 18:33:00,63.9,54.3,29.98,SSW,199,0.0,2.0,71,0.00,,,0.00,30,HR-IXPWINDi_r2_v1.2.,2013-03-15 01:33:00,
2013-03-14 18:38:00,63.2,54.0,29.98,SSW,196,0.0,2.0,72,0.00,,,0.00,25,HR-IXPWINDi_r2_v1.2.,2013-03-15 01:38:00,
2013-03-14 18:44:00,62.8,54.0,29.98,SSW,196,0.0,2.0,73,0.00,,,0.00,21,HR-IXPWINDi_r2_v1.2.,2013-03-15 01:44:00,
2013-03-14 18:49:00,62.4,53.9,29.98,SSW,196,0.0,1.0,74,0.00,,,0.00,19,HR-IXPWINDi_r2_v1.2.,2013-03-15 01:49:00,
2013-03-14 18:54:00,62.0,53.6,29.98,SSW,196,0.0,1.0,74,0.00,,,0.00,16,HR-IXPWINDi_r2_v1.2.,2013-03-15 01:54:00,
2013-03-14 18:59:00,61.5,53.4,29.98,SSW,196,0.0,1.0,75,0.00,,,0.00,7,HR-IXPWINDi_r2_v1.2.,2013-03-15 01:59:00,
2013-03-14 19:04:00,61.2,53.5,29.98,SSW,196,0.0,1.0,76,0.00,,,0.00,0,HR-IXPWINDi_r2_v1.2.,2013-03-15 02:04:00,
2013-03-14 19:09:00,60.8,53.5,29.98,SSW,196,0.0,0.0,77,0.00,,,0.00,0,HR-IXPWINDi_r2_v1.2.,2013-03-15 02:09:00,
2013-03-14 19:14:00,60.4,53.1,29.98,SSW,196,0.0,0.0,77,0.00,,,0.00,0,HR-IXPWINDi_r2_v1.2.,2013-03-15 02:14:00,
2013-03-14 19:20:00,60.0,53.1,29.98,SSW,196,0.0,0.0,78,0.00,,,0.00,0,HR-IXPWINDi_r2_v1.2.,2013-03-15 02:20:00,
2013-03-14 19:25:00,60.0,53.1,29.98,SSW,196,0.0,0.0,78,0.00,,,0.00,0,HR-IXPWINDi_r2_v1.2.,2013-03-15 02:25:00,
2013-03-14 19:30:00,59.5,52.9,29.98,SSW,196,0.0,0.0,79,0.00,,,0.00,0,HR-IXPWINDi_r2_v1.2.,2013-03-15 02:30:00,
2013-03-14 19:35:00,59.1,52.5,29.98,SSW,196,0.0,0.0,79,0.00,,,0.00,0,HR-IXPWINDi_r2_v1.2.,2013-03-15 02:35:00,
2013-03-14 19:40:00,59.2,52.6,29.98,SSW,196,0.0,1.0,79,0.00,,,0.00,0,HR-IXPWINDi_r2_v1.2.,2013-03-15 02:40:00,
2013-03-14 19:46:00,59.1,52.5,29.98,SSW,196,0.0,1.0,79,0.00,,,0.00,0,HR-IXPWINDi_r2_v1.2.,2013-03-15 02:46:00,
2013-03-14 19:51:00,58.5,52.6,29.98,SSW,196,0.0,0.0,81,0.00,,,0.00,0,HR-IXPWINDi_r2_v1.2.,2013-03-15 02:51:00,
2013-03-14 19:57:00,58.2,52.3,29.98,SSW,196,0.0,0.0,81,0.00,,,0.00,0,HR-IXPWINDi_r2_v1.2.,2013-03-15 02:57:00,
2013-03-14 20:02:00,57.8,52.3,29.98,SSW,196,0.0,0.0,82,0.00,,,0.00,0,HR-IXPWINDi_r2_v1.2.,2013-03-15 03:02:00,
2013-03-14 20:07:00,57.3,52.1,29.98,SSW,196,0.0,0.0,83,0.00,,,0.00,0,HR-IXPWINDi_r2_v1.2.,2013-03-15 03:07:00,
2013-03-14 20:12:00,57.3,52.1,29.98,SSW,196,0.0,0.0,83,0.00,,,0.00,0,HR-IXPWINDi_r2_v1.2.,2013-03-15 03:12:00,
2013-03-14 20:17:00,56.6,51.8,29.98,SSW,196,0.0,0.0,84,0.00,,,0.00,0,HR-IXPWINDi_r2_v1.2.,2013-03-15 03:17:00,
2013-03-14 20:23:00,56.2,51.4,29.98,SSW,196,0.0,0.0,84,0.00,,,0.00,0,HR-IXPWINDi_r2_v1.2.,2013-03-15 03:23:00,
2013-03-14 20:28:00,56.1,51.9,29.99,SSW,196,0.0,0.0,86,0.00,,,0.00,0,HR-IXPWINDi_r2_v1.2.,2013-03-15 03:28:00,
2013-03-14 20:33:00,55.9,51.7,29.99,SSW,196,0.0,0.0,86,0.00,,,0.00,0,HR-IXPWINDi_r2_v1.2.,2013-03-15 03:33:00,
2013-03-14 20:38:00,55.7,51.5,29.99,SSW,196,0.0,0.0,86,0.00,,,0.00,0,HR-IXPWINDi_r2_v1.2.,2013-03-15 03:38:00,
2013-03-14 20:43:00,55.5,51.6,29.99,SSW,196,0.0,0.0,87,0.00,,,0.00,0,HR-IXPWINDi_r2_v1.2.,2013-03-15 03:43:00,
2013-03-14 20:49:00,55.1,51.2,29.99,SSW,196,0.0,0.0,87,0.00,,,0.00,0,HR-IXPWINDi_r2_v1.2.,2013-03-15 03:49:00,
2013-03-14 20:54:00,55.1,51.5,29.98,SSW,196,0.0,0.0,88,0.00,,,0.00,0,HR-IXPWINDi_r2_v1.2.,2013-03-15 03:54:00,
2013-03-14 20:59:00,55.3,51.7,29.98,SSW,196,0.0,0.0,88,0.00,,,0.00,0,HR-IXPWINDi_r2_v1.2.,2013-03-15 03:59:00,
2013-03-14 21:00:00,55.3,51.7,29.98,SSW,196,0.0,0.0,88,0.00,,,0.00,0,HR-IXPWINDi_r2_v1.2.,2013-03-15 04:00:00,
2013-03-14 21:05:00,55.5,51.6,29.99,SSW,196,0.0,0.0,87,0.00,,,0.00,0,HR-IXPWINDi_r2_v1.2.,2013-03-15 04:05:00,
2013-03-14 21:10:00,55.6,51.4,29.99,SSW,196,0.0,0.0,86,0.00,,,0.00,0,HR-IXPWINDi_r2_v1.2.,2013-03-15 04:10:00,
2013-03-14 21:15:00,55.2,51.3,29.99,SSW,196,0.0,0.0,87,0.00,,,0.00,0,HR-IXPWINDi_r2_v1.2.,2013-03-15 04:15:00,
2013-03-14 21:20:00,55.1,51.2,29.99,SSW,196,0.0,0.0,87,0.00,,,0.00,0,HR-IXPWINDi_r2_v1.2.,2013-03-15 04:20:00,
2013-03-14 21:25:00,55.0,51.1,29.99,SSW,196,0.0,0.0,87,0.00,,,0.00,0,HR-IXPWINDi_r2_v1.2.,2013-03-15 04:25:00,
2013-03-14 21:30:00,55.0,51.1,29.99,SSW,196,0.0,0.0,87,0.00,,,0.00,0,HR-IXPWINDi_r2_v1.2.,2013-03-15 04:30:00,
2013-03-14 21:35:00,55.1,51.2,29.99,SSW,196,0.0,0.0,87,0.00,,,0.00,0,HR-IXPWINDi_r2_v1.2.,2013-03-15 04:35:00,
2013-03-14 21:40:00,54.6,50.7,29.99,SSW,196,0.0,0.0,87,0.00,,,0.00,0,HR-IXPWINDi_r2_v1.2.,2013-03-15 04:40:00,
2013-03-14 21:45:00,54.8,51.2,29.99,SSW,196,0.0,0.0,88,0.00,,,0.00,0,HR-IXPWINDi_r2_v1.2.,2013-03-15 04:45:00,
2013-03-14 21:50:00,54.7,50.8,29.99,SSW,196,0.0,0.0,87,0.00,,,0.00,0,HR-IXPWINDi_r2_v1.2.,2013-03-15 04:50:00,
2013-03-14 21:55:00,54.4,50.5,29.99,SSW,196,0.0,0.0,87,0.00,,,0.00,0,HR-IXPWINDi_r2_v1.2.,2013-03-15 04:55:00,
2013-03-14 22:00:00,54.0,50.2,29.99,SSW,196,0.0,0.0,87,0.00,,,0.00,0,HR-IXPWINDi_r2_v1.2.,2013-03-15 05:00:00,
2013-03-14 22:05:00,53.9,50.7,29.99,SSW,196,0.0,0.0,89,0.00,,,0.00,0,HR-IXPWINDi_r2_v1.2.,2013-03-15 05:05:00,
2013-03-14 22:11:00,53.7,49.9,29.99,SSW,196,0.0,0.0,87,0.00,,,0.00,0,HR-IXPWINDi_r2_v1.2.,2013-03-15 05:11:00,
2013-03-14 22:16:00,53.8,50.3,29.99,SSW,196,0.0,0.0,88,0.00,,,0.00,0,HR-IXPWINDi_r2_v1.2.,2013-03-15 05:16:00,
2013-03-14 22:21:00,53.8,50.3,29.99,SSW,196,0.0,0.0,88,0.00,,,0.00,0,HR-IXPWINDi_r2_v1.2.,2013-03-15 05:21:00,
2013-03-14 22:26:00,53.8,50.0,29.99,SSW,196,0.0,0.0,87,0.00,,,0.00,0,HR-IXPWINDi_r2_v1.2.,2013-03-15 05:26:00,
2013-03-14 22:32:00,53.5,49.7,29.99,SSW,196,0.0,0.0,87,0.00,,,0.00,0,HR-IXPWINDi_r2_v1.2.,2013-03-15 05:32:00,
2013-03-14 22:37:00,53.4,49.6,29.99,SSW,198,0.0,0.0,87,0.00,,,0.00,0,HR-IXPWINDi_r2_v1.2.,2013-03-15 05:37:00,
2013-03-14 22:42:00,53.3,48.8,29.99,SSW,203,0.0,0.0,85,0.00,,,0.00,0,HR-IXPWINDi_r2_v1.2.,2013-03-15 05:42:00,
2013-03-14 22:47:00,52.9,49.1,29.99,SSW,203,0.0,0.0,87,0.00,,,0.00,0,HR-IXPWINDi_r2_v1.2.,2013-03-15 05:47:00,
2013-03-14 22:53:00,52.8,49.3,29.99,SSW,203,0.0,0.0,88,0.00,,,0.00,0,HR-IXPWINDi_r2_v1.2.,2013-03-15 05:53:00,
2013-03-14 22:58:00,52.6,49.4,29.99,SSW,203,0.0,0.0,89,0.00,,,0.00,0,HR-IXPWINDi_r2_v1.2.,2013-03-15 05:58:00,
2013-03-14 23:03:00,52.6,49.1,29.99,SSW,203,0.0,0.0,88,0.00,,,0.00,0,HR-IXPWINDi_r2_v1.2.,2013-03-15 06:03:00,
2013-03-14 23:09:00,52.3,48.8,29.99,SW,217,0.0,0.0,88,0.00,,,0.00,0,HR-IXPWINDi_r2_v1.2.,2013-03-15 06:09:00,
2013-03-14 23:14:00,52.5,48.7,29.99,SW,217,0.0,0.0,87,0.00,,,0.00,0,HR-IXPWINDi_r2_v1.2.,2013-03-15 06:14:00,
2013-03-14 23:19:00,53.0,48.9,29.99,SW,217,0.0,0.0,86,0.00,,,0.00,0,HR-IXPWINDi_r2_v1.2.,2013-03-15 06:19:00,
2013-03-14 23:24:00,52.7,48.3,29.99,SW,220,0.0,0.0,85,0.00,,,0.00,0,HR-IXPWINDi_r2_v1.2.,2013-03-15 06:24:00,
2013-03-14 23:29:00,53.4,48.3,29.99,SW,227,0.0,0.0,83,0.00,,,0.00,0,HR-IXPWINDi_r2_v1.2.,2013-03-15 06:29:00,
2013-03-14 23:34:00,53.4,48.0,29.99,SW,227,0.0,0.0,82,0.00,,,0.00,0,HR-IXPWINDi_r2_v1.2.,2013-03-15 06:34:00,
2013-03-14 23:40:00,53.8,48.0,29.99,SW,229,0.0,0.0,81,0.00,,,0.00,0,HR-IXPWINDi_r2_v1.2.,2013-03-15 06:40:00,
2013-03-14 23:45:00,54.0,47.9,29.99,SW,235,2.0,2.0,80,0.00,,,0.00,0,HR-IXPWINDi_r2_v1.2.,2013-03-15 06:45:00,
2013-03-14 23:50:00,55.6,47.7,29.99,SW,236,2.0,2.0,75,0.00,,,0.00,0,HR-IXPWINDi_r2_v1.2.,2013-03-15 06:50:00,
2013-03-14 23:55:00,56.2,47.6,29.99,WSW,244,1.0,2.0,73,0.00,,,0.00,0,HR-IXPWINDi_r2_v1.2.,2013-03-15 06:55:00,